sensor_id;sensor_type;location;lat;lon;timestamp;P1;durP1;ratioP1;P2;durP2;ratioP2
40588;SDS011;26297;49.450;6.640;2022-10-30T00:02:38;4.03;;;3.28;;
40588;SDS011;26297;49.450;6.640;2022-10-30T00:05:42;7.93;;;3.88;;
40588;SDS011;26297;49.450;6.640;2022-10-30T00:08:47;5.95;;;3.60;;
40588;SDS011;26297;49.450;6.640;2022-10-30T00:11:50;5.50;;;3.25;;
40588;SDS011;26297;49.450;6.640;2022-10-30T00:14:53;7.32;;;3.60;;
40588;SDS011;26297;49.450;6.640;2022-10-30T00:17:57;6.53;;;4.10;;
40588;SDS011;26297;49.450;6.640;2022-10-30T00:21:07;6.53;;;3.35;;
40588;SDS011;26297;49.450;6.640;2022-10-30T00:24:14;9.82;;;3.42;;
40588;SDS011;26297;49.450;6.640;2022-10-30T00:27:17;5.57;;;3.58;;
40588;SDS011;26297;49.450;6.640;2022-10-30T00:30:21;7.78;;;4.45;;
40588;SDS011;26297;49.450;6.640;2022-10-30T00:33:24;4.25;;;3.60;;
40588;SDS011;26297;49.450;6.640;2022-10-30T00:36:28;5.38;;;3.88;;
40588;SDS011;26297;49.450;6.640;2022-10-30T00:39:31;8.68;;;3.47;;
40588;SDS011;26297;49.450;6.640;2022-10-30T00:42:34;6.50;;;3.65;;
40588;SDS011;26297;49.450;6.640;2022-10-30T00:45:38;6.22;;;3.60;;
40588;SDS011;26297;49.450;6.640;2022-10-30T00:48:43;8.98;;;3.97;;
40588;SDS011;26297;49.450;6.640;2022-10-30T00:51:53;8.38;;;3.92;;
40588;SDS011;26297;49.450;6.640;2022-10-30T00:54:57;9.60;;;4.32;;
40588;SDS011;26297;49.450;6.640;2022-10-30T00:58:06;4.82;;;3.40;;
40588;SDS011;26297;49.450;6.640;2022-10-30T01:01:16;5.63;;;3.80;;
40588;SDS011;26297;49.450;6.640;2022-10-30T01:04:23;7.93;;;3.70;;
40588;SDS011;26297;49.450;6.640;2022-10-30T01:07:27;5.03;;;3.50;;
40588;SDS011;26297;49.450;6.640;2022-10-30T01:10:32;5.30;;;4.35;;
40588;SDS011;26297;49.450;6.640;2022-10-30T01:13:35;5.38;;;3.88;;
40588;SDS011;26297;49.450;6.640;2022-10-30T01:26:50;7.90;;;3.80;;
40588;SDS011;26297;49.450;6.640;2022-10-30T01:39:36;6.20;;;3.10;;
40588;SDS011;26297;49.450;6.640;2022-10-30T01:42:47;6.00;;;3.97;;
40588;SDS011;26297;49.450;6.640;2022-10-30T01:46:11;8.43;;;4.07;;
40588;SDS011;26297;49.450;6.640;2022-10-30T01:56:51;7.95;;;4.03;;
40588;SDS011;26297;49.450;6.640;2022-10-30T02:00:14;5.22;;;3.60;;
40588;SDS011;26297;49.450;6.640;2022-10-30T02:03:18;9.90;;;3.97;;
40588;SDS011;26297;49.450;6.640;2022-10-30T02:06:24;9.38;;;4.10;;
40588;SDS011;26297;49.450;6.640;2022-10-30T02:09:27;5.00;;;3.65;;
40588;SDS011;26297;49.450;6.640;2022-10-30T02:12:32;9.73;;;3.65;;
40588;SDS011;26297;49.450;6.640;2022-10-30T02:15:41;5.68;;;3.50;;
40588;SDS011;26297;49.450;6.640;2022-10-30T02:18:45;7.10;;;3.67;;
40588;SDS011;26297;49.450;6.640;2022-10-30T02:21:48;6.53;;;2.97;;
40588;SDS011;26297;49.450;6.640;2022-10-30T02:24:52;6.22;;;3.40;;
40588;SDS011;26297;49.450;6.640;2022-10-30T02:27:56;4.93;;;3.28;;
40588;SDS011;26297;49.450;6.640;2022-10-30T02:30:59;4.72;;;3.20;;
40588;SDS011;26297;49.450;6.640;2022-10-30T02:34:03;6.13;;;3.65;;
40588;SDS011;26297;49.450;6.640;2022-10-30T02:37:06;10.82;;;3.47;;
40588;SDS011;26297;49.450;6.640;2022-10-30T02:40:10;5.18;;;3.42;;
40588;SDS011;26297;49.450;6.640;2022-10-30T02:43:16;4.75;;;3.15;;
40588;SDS011;26297;49.450;6.640;2022-10-30T02:46:20;8.27;;;3.55;;
40588;SDS011;26297;49.450;6.640;2022-10-30T02:49:23;8.05;;;3.47;;
40588;SDS011;26297;49.450;6.640;2022-10-30T02:52:26;6.90;;;3.45;;
40588;SDS011;26297;49.450;6.640;2022-10-30T02:55:29;8.18;;;3.58;;
40588;SDS011;26297;49.450;6.640;2022-10-30T02:58:35;5.30;;;3.22;;
40588;SDS011;26297;49.450;6.640;2022-10-30T03:01:39;7.47;;;3.80;;
40588;SDS011;26297;49.450;6.640;2022-10-30T03:04:42;10.07;;;3.65;;
40588;SDS011;26297;49.450;6.640;2022-10-30T03:07:46;5.47;;;2.92;;
40588;SDS011;26297;49.450;6.640;2022-10-30T03:10:50;5.20;;;3.25;;
40588;SDS011;26297;49.450;6.640;2022-10-30T03:13:53;7.65;;;3.65;;
40588;SDS011;26297;49.450;6.640;2022-10-30T03:16:57;7.43;;;3.15;;
40588;SDS011;26297;49.450;6.640;2022-10-30T03:20:00;5.53;;;3.17;;
40588;SDS011;26297;49.450;6.640;2022-10-30T03:23:03;8.95;;;3.72;;
40588;SDS011;26297;49.450;6.640;2022-10-30T03:26:07;6.95;;;3.47;;
40588;SDS011;26297;49.450;6.640;2022-10-30T03:29:10;5.28;;;3.88;;
40588;SDS011;26297;49.450;6.640;2022-10-30T03:32:13;3.47;;;2.95;;
40588;SDS011;26297;49.450;6.640;2022-10-30T03:35:16;4.80;;;2.85;;
40588;SDS011;26297;49.450;6.640;2022-10-30T03:38:28;6.68;;;3.47;;
40588;SDS011;26297;49.450;6.640;2022-10-30T03:41:34;4.90;;;3.45;;
40588;SDS011;26297;49.450;6.640;2022-10-30T03:44:37;4.25;;;2.88;;
40588;SDS011;26297;49.450;6.640;2022-10-30T03:47:41;6.55;;;3.10;;
40588;SDS011;26297;49.450;6.640;2022-10-30T03:50:44;7.35;;;3.30;;
40588;SDS011;26297;49.450;6.640;2022-10-30T03:53:48;6.40;;;3.35;;
40588;SDS011;26297;49.450;6.640;2022-10-30T03:56:51;8.50;;;3.30;;
40588;SDS011;26297;49.450;6.640;2022-10-30T03:59:54;5.70;;;3.28;;
40588;SDS011;26297;49.450;6.640;2022-10-30T04:02:57;6.65;;;3.17;;
40588;SDS011;26297;49.450;6.640;2022-10-30T04:06:01;6.30;;;3.10;;
40588;SDS011;26297;49.450;6.640;2022-10-30T04:09:04;5.30;;;3.08;;
40588;SDS011;26297;49.450;6.640;2022-10-30T04:12:07;7.55;;;3.22;;
40588;SDS011;26297;49.450;6.640;2022-10-30T04:15:13;4.68;;;3.17;;
40588;SDS011;26297;49.450;6.640;2022-10-30T04:18:17;3.55;;;2.80;;
40588;SDS011;26297;49.450;6.640;2022-10-30T04:21:23;8.50;;;3.10;;
40588;SDS011;26297;49.450;6.640;2022-10-30T04:24:26;6.80;;;3.22;;
40588;SDS011;26297;49.450;6.640;2022-10-30T04:27:37;5.20;;;2.83;;
40588;SDS011;26297;49.450;6.640;2022-10-30T04:30:44;7.57;;;3.17;;
40588;SDS011;26297;49.450;6.640;2022-10-30T04:33:48;7.18;;;2.88;;
40588;SDS011;26297;49.450;6.640;2022-10-30T04:36:52;5.32;;;2.97;;
40588;SDS011;26297;49.450;6.640;2022-10-30T04:43:34;4.88;;;2.97;;
40588;SDS011;26297;49.450;6.640;2022-10-30T04:46:38;8.43;;;3.22;;
40588;SDS011;26297;49.450;6.640;2022-10-30T04:49:43;5.90;;;3.22;;
40588;SDS011;26297;49.450;6.640;2022-10-30T04:52:46;9.45;;;3.90;;
40588;SDS011;26297;49.450;6.640;2022-10-30T04:55:53;6.55;;;3.10;;
40588;SDS011;26297;49.450;6.640;2022-10-30T04:58:57;6.88;;;3.20;;
40588;SDS011;26297;49.450;6.640;2022-10-30T05:02:00;7.18;;;3.33;;
40588;SDS011;26297;49.450;6.640;2022-10-30T05:05:04;4.32;;;3.30;;
40588;SDS011;26297;49.450;6.640;2022-10-30T05:08:07;4.88;;;2.75;;
40588;SDS011;26297;49.450;6.640;2022-10-30T05:11:13;4.07;;;2.92;;
40588;SDS011;26297;49.450;6.640;2022-10-30T05:14:17;4.43;;;2.72;;
40588;SDS011;26297;49.450;6.640;2022-10-30T05:17:20;9.10;;;2.95;;
40588;SDS011;26297;49.450;6.640;2022-10-30T05:20:23;5.78;;;3.28;;
40588;SDS011;26297;49.450;6.640;2022-10-30T05:23:27;5.35;;;3.33;;
40588;SDS011;26297;49.450;6.640;2022-10-30T05:26:30;7.40;;;3.03;;
40588;SDS011;26297;49.450;6.640;2022-10-30T05:29:36;7.30;;;3.50;;
40588;SDS011;26297;49.450;6.640;2022-10-30T05:32:47;7.47;;;3.50;;
40588;SDS011;26297;49.450;6.640;2022-10-30T05:35:50;11.75;;;3.80;;
40588;SDS011;26297;49.450;6.640;2022-10-30T05:38:54;7.88;;;4.15;;
40588;SDS011;26297;49.450;6.640;2022-10-30T05:41:57;7.97;;;3.55;;
40588;SDS011;26297;49.450;6.640;2022-10-30T05:45:00;7.55;;;3.88;;
40588;SDS011;26297;49.450;6.640;2022-10-30T05:48:04;3.55;;;3.25;;
40588;SDS011;26297;49.450;6.640;2022-10-30T05:51:07;5.88;;;4.22;;
40588;SDS011;26297;49.450;6.640;2022-10-30T05:54:11;5.28;;;3.75;;
40588;SDS011;26297;49.450;6.640;2022-10-30T05:57:15;6.93;;;3.65;;
40588;SDS011;26297;49.450;6.640;2022-10-30T06:00:18;12.27;;;4.18;;
40588;SDS011;26297;49.450;6.640;2022-10-30T06:03:21;10.48;;;3.90;;
40588;SDS011;26297;49.450;6.640;2022-10-30T06:06:24;4.78;;;3.22;;
40588;SDS011;26297;49.450;6.640;2022-10-30T06:09:28;5.70;;;3.75;;
40588;SDS011;26297;49.450;6.640;2022-10-30T06:12:31;8.02;;;3.13;;
40588;SDS011;26297;49.450;6.640;2022-10-30T06:15:34;5.10;;;3.58;;
40588;SDS011;26297;49.450;6.640;2022-10-30T06:18:38;5.13;;;3.05;;
40588;SDS011;26297;49.450;6.640;2022-10-30T06:21:41;3.75;;;2.70;;
40588;SDS011;26297;49.450;6.640;2022-10-30T06:24:49;5.22;;;3.42;;
40588;SDS011;26297;49.450;6.640;2022-10-30T06:27:53;4.25;;;3.22;;
40588;SDS011;26297;49.450;6.640;2022-10-30T06:30:56;3.55;;;2.42;;
40588;SDS011;26297;49.450;6.640;2022-10-30T06:34:00;5.07;;;2.92;;
40588;SDS011;26297;49.450;6.640;2022-10-30T06:37:03;3.88;;;3.22;;
40588;SDS011;26297;49.450;6.640;2022-10-30T06:40:07;4.80;;;3.03;;
40588;SDS011;26297;49.450;6.640;2022-10-30T06:43:11;4.95;;;2.95;;
40588;SDS011;26297;49.450;6.640;2022-10-30T06:46:15;2.92;;;2.67;;
40588;SDS011;26297;49.450;6.640;2022-10-30T06:49:19;3.33;;;2.47;;
40588;SDS011;26297;49.450;6.640;2022-10-30T06:52:22;4.63;;;2.50;;
40588;SDS011;26297;49.450;6.640;2022-10-30T06:55:25;3.53;;;2.67;;
40588;SDS011;26297;49.450;6.640;2022-10-30T06:58:29;5.75;;;2.90;;
40588;SDS011;26297;49.450;6.640;2022-10-30T07:01:32;3.33;;;2.70;;
40588;SDS011;26297;49.450;6.640;2022-10-30T07:04:35;3.55;;;2.75;;
40588;SDS011;26297;49.450;6.640;2022-10-30T07:14:16;3.10;;;2.70;;
40588;SDS011;26297;49.450;6.640;2022-10-30T07:17:19;2.75;;;2.42;;
40588;SDS011;26297;49.450;6.640;2022-10-30T07:20:31;3.47;;;3.05;;
40588;SDS011;26297;49.450;6.640;2022-10-30T07:23:35;4.18;;;3.47;;
40588;SDS011;26297;49.450;6.640;2022-10-30T07:26:39;3.85;;;3.30;;
40588;SDS011;26297;49.450;6.640;2022-10-30T07:29:42;3.08;;;2.63;;
40588;SDS011;26297;49.450;6.640;2022-10-30T07:33:04;4.22;;;3.13;;
40588;SDS011;26297;49.450;6.640;2022-10-30T07:36:08;5.13;;;2.83;;
40588;SDS011;26297;49.450;6.640;2022-10-30T07:39:14;3.40;;;2.53;;
40588;SDS011;26297;49.450;6.640;2022-10-30T07:42:57;2.90;;;2.22;;
40588;SDS011;26297;49.450;6.640;2022-10-30T07:46:02;3.30;;;2.50;;
40588;SDS011;26297;49.450;6.640;2022-10-30T07:49:05;2.60;;;2.40;;
40588;SDS011;26297;49.450;6.640;2022-10-30T07:52:08;3.05;;;2.42;;
40588;SDS011;26297;49.450;6.640;2022-10-30T07:55:12;2.13;;;2.00;;
40588;SDS011;26297;49.450;6.640;2022-10-30T07:58:15;2.67;;;2.40;;
40588;SDS011;26297;49.450;6.640;2022-10-30T08:01:18;4.07;;;2.78;;
40588;SDS011;26297;49.450;6.640;2022-10-30T08:04:22;5.35;;;2.63;;
40588;SDS011;26297;49.450;6.640;2022-10-30T08:07:29;4.95;;;3.08;;
40588;SDS011;26297;49.450;6.640;2022-10-30T08:10:32;4.47;;;2.63;;
40588;SDS011;26297;49.450;6.640;2022-10-30T08:13:36;3.67;;;3.13;;
40588;SDS011;26297;49.450;6.640;2022-10-30T08:16:39;6.50;;;3.47;;
40588;SDS011;26297;49.450;6.640;2022-10-30T08:19:42;2.90;;;2.60;;
40588;SDS011;26297;49.450;6.640;2022-10-30T08:22:49;7.38;;;3.17;;
40588;SDS011;26297;49.450;6.640;2022-10-30T08:26:03;3.90;;;2.90;;
40588;SDS011;26297;49.450;6.640;2022-10-30T08:29:06;4.07;;;2.95;;
40588;SDS011;26297;49.450;6.640;2022-10-30T08:32:10;3.38;;;3.03;;
40588;SDS011;26297;49.450;6.640;2022-10-30T08:35:13;3.45;;;2.60;;
40588;SDS011;26297;49.450;6.640;2022-10-30T08:38:18;3.38;;;2.97;;
40588;SDS011;26297;49.450;6.640;2022-10-30T08:41:21;3.42;;;2.90;;
40588;SDS011;26297;49.450;6.640;2022-10-30T08:48:00;4.63;;;2.97;;
40588;SDS011;26297;49.450;6.640;2022-10-30T09:01:21;4.32;;;2.40;;
40588;SDS011;26297;49.450;6.640;2022-10-30T09:04:40;4.45;;;2.70;;
40588;SDS011;26297;49.450;6.640;2022-10-30T09:07:48;3.00;;;2.70;;
40588;SDS011;26297;49.450;6.640;2022-10-30T09:10:57;3.83;;;2.58;;
40588;SDS011;26297;49.450;6.640;2022-10-30T09:18:38;3.63;;;2.78;;
40588;SDS011;26297;49.450;6.640;2022-10-30T09:37:42;3.93;;;3.00;;
40588;SDS011;26297;49.450;6.640;2022-10-30T10:01:34;3.97;;;2.95;;
40588;SDS011;26297;49.450;6.640;2022-10-30T10:04:53;3.88;;;2.92;;
40588;SDS011;26297;49.450;6.640;2022-10-30T10:08:02;3.45;;;3.15;;
40588;SDS011;26297;49.450;6.640;2022-10-30T10:11:13;5.80;;;2.80;;
40588;SDS011;26297;49.450;6.640;2022-10-30T10:14:41;3.53;;;2.90;;
40588;SDS011;26297;49.450;6.640;2022-10-30T10:17:47;5.55;;;3.30;;
40588;SDS011;26297;49.450;6.640;2022-10-30T10:20:52;3.70;;;2.65;;
40588;SDS011;26297;49.450;6.640;2022-10-30T10:23:58;5.25;;;2.80;;
40588;SDS011;26297;49.450;6.640;2022-10-30T10:30:22;4.90;;;2.78;;
40588;SDS011;26297;49.450;6.640;2022-10-30T10:33:31;4.53;;;2.97;;
40588;SDS011;26297;49.450;6.640;2022-10-30T10:51:15;6.90;;;3.60;;
40588;SDS011;26297;49.450;6.640;2022-10-30T10:54:39;5.05;;;2.25;;
40588;SDS011;26297;49.450;6.640;2022-10-30T10:57:46;6.85;;;3.47;;
40588;SDS011;26297;49.450;6.640;2022-10-30T11:00:50;4.75;;;2.58;;
40588;SDS011;26297;49.450;6.640;2022-10-30T11:07:24;5.85;;;3.25;;
40588;SDS011;26297;49.450;6.640;2022-10-30T11:10:32;6.15;;;2.70;;
40588;SDS011;26297;49.450;6.640;2022-10-30T11:13:36;8.13;;;4.07;;
40588;SDS011;26297;49.450;6.640;2022-10-30T11:16:52;6.57;;;3.40;;
40588;SDS011;26297;49.450;6.640;2022-10-30T11:20:24;6.00;;;3.50;;
40588;SDS011;26297;49.450;6.640;2022-10-30T11:23:40;7.38;;;3.60;;
40588;SDS011;26297;49.450;6.640;2022-10-30T11:26:47;5.05;;;2.88;;
40588;SDS011;26297;49.450;6.640;2022-10-30T11:30:01;6.35;;;2.90;;
40588;SDS011;26297;49.450;6.640;2022-10-30T11:33:26;5.18;;;3.13;;
40588;SDS011;26297;49.450;6.640;2022-10-30T11:36:34;5.05;;;3.15;;
40588;SDS011;26297;49.450;6.640;2022-10-30T11:39:40;5.80;;;2.78;;
40588;SDS011;26297;49.450;6.640;2022-10-30T11:42:48;4.40;;;2.85;;
40588;SDS011;26297;49.450;6.640;2022-10-30T11:45:57;4.10;;;2.67;;
40588;SDS011;26297;49.450;6.640;2022-10-30T11:49:01;7.68;;;2.55;;
40588;SDS011;26297;49.450;6.640;2022-10-30T11:52:07;5.53;;;2.58;;
40588;SDS011;26297;49.450;6.640;2022-10-30T11:55:27;3.28;;;2.53;;
40588;SDS011;26297;49.450;6.640;2022-10-30T11:58:37;6.70;;;2.88;;
40588;SDS011;26297;49.450;6.640;2022-10-30T12:05:36;3.00;;;2.20;;
40588;SDS011;26297;49.450;6.640;2022-10-30T12:15:47;3.58;;;2.20;;
40588;SDS011;26297;49.450;6.640;2022-10-30T12:19:01;6.82;;;2.83;;
40588;SDS011;26297;49.450;6.640;2022-10-30T12:22:37;5.63;;;2.60;;
40588;SDS011;26297;49.450;6.640;2022-10-30T12:25:40;10.23;;;2.63;;
40588;SDS011;26297;49.450;6.640;2022-10-30T12:28:54;5.05;;;2.50;;
40588;SDS011;26297;49.450;6.640;2022-10-30T12:32:01;3.28;;;2.10;;
40588;SDS011;26297;49.450;6.640;2022-10-30T12:35:36;2.53;;;2.15;;
40588;SDS011;26297;49.450;6.640;2022-10-30T12:38:37;3.33;;;2.03;;
40588;SDS011;26297;49.450;6.640;2022-10-30T12:45:20;7.15;;;2.10;;
40588;SDS011;26297;49.450;6.640;2022-10-30T12:49:00;4.25;;;2.08;;
40588;SDS011;26297;49.450;6.640;2022-10-30T12:55:34;3.67;;;1.83;;
40588;SDS011;26297;49.450;6.640;2022-10-30T13:02:07;2.30;;;1.92;;
40588;SDS011;26297;49.450;6.640;2022-10-30T13:05:38;3.63;;;1.77;;
40588;SDS011;26297;49.450;6.640;2022-10-30T13:09:02;4.47;;;2.03;;
40588;SDS011;26297;49.450;6.640;2022-10-30T13:15:25;4.05;;;1.75;;
40588;SDS011;26297;49.450;6.640;2022-10-30T13:18:33;2.80;;;1.63;;
40588;SDS011;26297;49.450;6.640;2022-10-30T13:21:42;6.00;;;2.45;;
40588;SDS011;26297;49.450;6.640;2022-10-30T13:24:57;2.70;;;1.55;;
40588;SDS011;26297;49.450;6.640;2022-10-30T13:28:25;4.43;;;2.30;;
40588;SDS011;26297;49.450;6.640;2022-10-30T13:35:30;4.45;;;1.90;;
40588;SDS011;26297;49.450;6.640;2022-10-30T13:38:51;5.10;;;1.60;;
40588;SDS011;26297;49.450;6.640;2022-10-30T13:42:17;5.88;;;1.95;;
40588;SDS011;26297;49.450;6.640;2022-10-30T13:45:46;2.13;;;1.45;;
40588;SDS011;26297;49.450;6.640;2022-10-30T13:49:08;3.20;;;1.83;;
40588;SDS011;26297;49.450;6.640;2022-10-30T13:52:27;3.20;;;1.50;;
40588;SDS011;26297;49.450;6.640;2022-10-30T13:55:33;3.35;;;1.98;;
40588;SDS011;26297;49.450;6.640;2022-10-30T13:58:39;3.08;;;1.85;;
40588;SDS011;26297;49.450;6.640;2022-10-30T14:05:12;2.05;;;1.65;;
40588;SDS011;26297;49.450;6.640;2022-10-30T14:08:37;3.08;;;1.77;;
40588;SDS011;26297;49.450;6.640;2022-10-30T14:15:46;3.53;;;1.77;;
40588;SDS011;26297;49.450;6.640;2022-10-30T14:19:01;3.15;;;1.38;;
40588;SDS011;26297;49.450;6.640;2022-10-30T14:22:18;2.67;;;1.70;;
40588;SDS011;26297;49.450;6.640;2022-10-30T14:25:28;4.97;;;1.88;;
40588;SDS011;26297;49.450;6.640;2022-10-30T14:28:32;1.70;;;1.45;;
40588;SDS011;26297;49.450;6.640;2022-10-30T14:32:28;3.35;;;2.15;;
40588;SDS011;26297;49.450;6.640;2022-10-30T14:35:27;3.90;;;1.95;;
40588;SDS011;26297;49.450;6.640;2022-10-30T14:38:34;4.72;;;1.75;;
40588;SDS011;26297;49.450;6.640;2022-10-30T14:56:04;2.67;;;1.63;;
40588;SDS011;26297;49.450;6.640;2022-10-30T15:10:48;3.03;;;1.60;;
40588;SDS011;26297;49.450;6.640;2022-10-30T15:14:11;2.30;;;1.70;;
40588;SDS011;26297;49.450;6.640;2022-10-30T15:17:42;3.15;;;1.55;;
40588;SDS011;26297;49.450;6.640;2022-10-30T15:21:03;3.30;;;1.80;;
40588;SDS011;26297;49.450;6.640;2022-10-30T15:24:29;3.95;;;1.58;;
40588;SDS011;26297;49.450;6.640;2022-10-30T15:27:40;7.88;;;2.17;;
40588;SDS011;26297;49.450;6.640;2022-10-30T15:34:32;4.75;;;1.67;;
40588;SDS011;26297;49.450;6.640;2022-10-30T15:37:35;4.40;;;1.45;;
40588;SDS011;26297;49.450;6.640;2022-10-30T15:40:38;4.88;;;1.67;;
40588;SDS011;26297;49.450;6.640;2022-10-30T15:43:43;4.03;;;1.77;;
40588;SDS011;26297;49.450;6.640;2022-10-30T15:46:48;2.47;;;1.75;;
40588;SDS011;26297;49.450;6.640;2022-10-30T15:49:57;2.60;;;1.92;;
40588;SDS011;26297;49.450;6.640;2022-10-30T15:53:04;2.80;;;1.60;;
40588;SDS011;26297;49.450;6.640;2022-10-30T17:43:53;6.45;;;1.75;;
40588;SDS011;26297;49.450;6.640;2022-10-30T17:47:35;5.00;;;1.90;;
40588;SDS011;26297;49.450;6.640;2022-10-30T18:31:43;3.20;;;1.60;;
40588;SDS011;26297;49.450;6.640;2022-10-30T19:47:32;4.60;;;2.33;;
40588;SDS011;26297;49.450;6.640;2022-10-30T19:59:35;3.53;;;2.38;;
40588;SDS011;26297;49.450;6.640;2022-10-30T20:02:38;4.30;;;2.60;;
40588;SDS011;26297;49.450;6.640;2022-10-30T20:21:53;6.38;;;2.63;;
40588;SDS011;26297;49.450;6.640;2022-10-30T20:25:00;5.30;;;3.40;;
40588;SDS011;26297;49.450;6.640;2022-10-30T20:28:05;4.65;;;2.55;;
40588;SDS011;26297;49.450;6.640;2022-10-30T20:31:45;5.50;;;2.47;;
40588;SDS011;26297;49.450;6.640;2022-10-30T20:35:34;4.57;;;2.65;;
40588;SDS011;26297;49.450;6.640;2022-10-30T20:38:38;8.95;;;2.40;;
40588;SDS011;26297;49.450;6.640;2022-10-30T20:41:41;4.97;;;2.50;;
40588;SDS011;26297;49.450;6.640;2022-10-30T20:44:48;4.30;;;2.22;;
40588;SDS011;26297;49.450;6.640;2022-10-30T20:47:52;6.28;;;2.35;;
40588;SDS011;26297;49.450;6.640;2022-10-30T20:50:56;3.80;;;2.42;;
40588;SDS011;26297;49.450;6.640;2022-10-30T21:13:59;6.53;;;2.60;;
40588;SDS011;26297;49.450;6.640;2022-10-30T21:17:02;3.65;;;2.08;;
40588;SDS011;26297;49.450;6.640;2022-10-30T21:20:06;5.93;;;2.90;;
40588;SDS011;26297;49.450;6.640;2022-10-30T21:23:09;5.32;;;2.42;;
40588;SDS011;26297;49.450;6.640;2022-10-30T21:26:14;6.30;;;2.80;;
40588;SDS011;26297;49.450;6.640;2022-10-30T21:29:20;4.93;;;2.42;;
40588;SDS011;26297;49.450;6.640;2022-10-30T21:32:24;6.05;;;3.30;;
40588;SDS011;26297;49.450;6.640;2022-10-30T21:35:27;6.75;;;2.95;;
40588;SDS011;26297;49.450;6.640;2022-10-30T21:38:31;5.57;;;2.60;;
40588;SDS011;26297;49.450;6.640;2022-10-30T21:41:34;4.20;;;2.70;;
40588;SDS011;26297;49.450;6.640;2022-10-30T21:44:37;5.03;;;2.70;;
40588;SDS011;26297;49.450;6.640;2022-10-30T21:47:41;7.05;;;3.20;;
40588;SDS011;26297;49.450;6.640;2022-10-30T21:58:15;3.58;;;2.60;;
40588;SDS011;26297;49.450;6.640;2022-10-30T22:01:20;6.18;;;3.40;;
40588;SDS011;26297;49.450;6.640;2022-10-30T22:12:20;6.28;;;2.78;;
40588;SDS011;26297;49.450;6.640;2022-10-30T22:15:23;7.03;;;3.15;;
40588;SDS011;26297;49.450;6.640;2022-10-30T22:18:29;4.72;;;2.80;;
40588;SDS011;26297;49.450;6.640;2022-10-30T22:21:33;5.40;;;2.97;;
40588;SDS011;26297;49.450;6.640;2022-10-30T22:24:36;7.68;;;3.15;;
40588;SDS011;26297;49.450;6.640;2022-10-30T23:33:51;4.40;;;2.85;;
40588;SDS011;26297;49.450;6.640;2022-10-30T23:36:55;5.63;;;3.10;;
40588;SDS011;26297;49.450;6.640;2022-10-30T23:39:58;6.28;;;3.83;;
40588;SDS011;26297;49.450;6.640;2022-10-30T23:43:01;5.93;;;2.60;;
40588;SDS011;26297;49.450;6.640;2022-10-30T23:46:04;5.80;;;3.17;;
40588;SDS011;26297;49.450;6.640;2022-10-30T23:49:08;5.55;;;3.03;;
40588;SDS011;26297;49.450;6.640;2022-10-30T23:52:11;4.88;;;2.72;;
40588;SDS011;26297;49.450;6.640;2022-10-30T23:55:15;6.13;;;2.83;;
40588;SDS011;26297;49.450;6.640;2022-10-30T23:58:21;4.55;;;2.67;;
